createdAt,value
2019-03-24T00:02:57.256Z,19.53
2019-03-24T00:08:03.986Z,22.07
2019-03-24T00:13:10.418Z,24.33
2019-03-24T00:18:17.196Z,20.00
2019-03-24T00:23:42.649Z,21.27
2019-03-24T00:28:48.400Z,20.67
2019-03-24T00:33:53.856Z,21.30
2019-03-24T00:39:00.294Z,21.10
2019-03-24T00:44:06.948Z,21.97
2019-03-24T00:49:12.292Z,20.30
2019-03-24T00:54:17.745Z,23.33
2019-03-24T00:59:24.594Z,18.20
2019-03-24T01:04:31.604Z,20.17
2019-03-24T01:09:37.745Z,17.93
2019-03-24T01:14:44.354Z,19.40
2019-03-24T01:19:56.847Z,19.00
2019-03-24T01:25:02.877Z,17.27
2019-03-24T01:30:28.651Z,15.43
2019-03-24T01:35:34.900Z,15.37
2019-03-24T01:40:40.928Z,14.80
2019-03-24T01:45:46.292Z,17.03
2019-03-24T01:50:55.135Z,13.00
2019-03-24T01:56:00.581Z,15.00
2019-03-24T02:01:06.078Z,11.63
2019-03-24T02:06:12.688Z,12.67
2019-03-24T02:11:19.323Z,13.13
2019-03-24T02:16:25.828Z,10.17
2019-03-24T02:21:33.060Z,9.53
2019-03-24T02:26:39.607Z,10.57
2019-03-24T02:31:46.189Z,9.73
2019-03-24T02:36:52.838Z,10.50
2019-03-24T02:41:59.913Z,9.00
2019-03-24T02:47:06.636Z,7.73
2019-03-24T02:52:13.272Z,9.13
2019-03-24T02:57:20.268Z,8.13
2019-03-24T03:02:27.016Z,8.00
2019-03-24T03:07:33.496Z,7.63
2019-03-24T03:12:38.675Z,8.67
2019-03-24T03:17:44.162Z,8.93
2019-03-24T03:22:49.235Z,7.70
2019-03-24T03:27:54.847Z,9.07
2019-03-24T03:33:00.157Z,8.87
2019-03-24T03:38:05.621Z,9.73
2019-03-24T03:43:10.765Z,8.63
2019-03-24T03:48:16.250Z,8.83
2019-03-24T03:53:21.401Z,9.27
2019-03-24T03:58:26.640Z,11.17
2019-03-24T04:03:32.128Z,9.73
2019-03-24T04:08:37.406Z,9.50
2019-03-24T04:13:42.335Z,10.97
2019-03-24T04:18:47.471Z,9.77
2019-03-24T04:23:53.575Z,9.53
2019-03-24T04:28:58.791Z,9.33
2019-03-24T04:34:03.864Z,8.57
2019-03-24T04:39:09.403Z,9.43
2019-03-24T04:44:14.558Z,8.57
2019-03-24T04:49:20.122Z,10.57
2019-03-24T04:54:25.368Z,7.13
2019-03-24T04:59:50.027Z,10.30
2019-03-24T05:04:55.297Z,7.53
2019-03-24T05:10:01.098Z,8.57
2019-03-24T05:15:07.126Z,7.63
2019-03-24T05:20:12.415Z,9.73
2019-03-24T05:25:17.840Z,8.30
2019-03-24T05:30:23.326Z,7.63
2019-03-24T05:35:28.947Z,7.67
2019-03-24T05:40:34.251Z,7.17
2019-03-24T05:45:58.641Z,8.40
2019-03-24T05:51:03.915Z,6.50
2019-03-24T05:56:18.983Z,7.30
2019-03-24T06:01:23.931Z,7.33
2019-03-24T06:06:29.106Z,5.80
2019-03-24T06:11:34.298Z,5.80
2019-03-24T06:16:40.072Z,4.60
2019-03-24T06:22:04.463Z,4.87
2019-03-24T06:27:09.811Z,5.50
2019-03-24T06:32:14.959Z,5.07
2019-03-24T06:37:21.529Z,4.57
2019-03-24T06:42:26.910Z,4.20
2019-03-24T06:47:32.526Z,4.30
2019-03-24T06:52:37.861Z,4.17
2019-03-24T06:57:43.178Z,4.30
2019-03-24T07:02:48.495Z,3.23
2019-03-24T07:07:53.884Z,3.13
2019-03-24T07:12:59.098Z,4.53
2019-03-24T07:18:08.489Z,3.60
2019-03-24T07:23:11.024Z,4.20
2019-03-24T07:28:16.249Z,3.43
2019-03-24T07:33:21.321Z,3.37
2019-03-24T07:38:26.486Z,3.90
2019-03-24T07:43:31.989Z,3.37
2019-03-24T07:48:37.428Z,3.90
2019-03-24T07:53:42.460Z,3.30
2019-03-24T07:58:48.198Z,3.40
2019-03-24T08:03:53.129Z,3.10
2019-03-24T08:08:58.387Z,3.20
2019-03-24T08:14:03.872Z,3.37
2019-03-24T08:19:09.079Z,3.80
2019-03-24T08:24:14.621Z,4.23
2019-03-24T08:29:19.651Z,3.07
2019-03-24T08:34:25.536Z,3.07
2019-03-24T08:39:30.711Z,2.80
2019-03-24T08:44:36.107Z,3.90
2019-03-24T08:49:41.494Z,2.70
2019-03-24T08:54:46.946Z,3.13
2019-03-24T08:59:52.131Z,3.27
2019-03-24T09:04:57.884Z,2.60
2019-03-24T09:10:03.278Z,3.10
2019-03-24T09:15:08.301Z,2.37
2019-03-24T09:20:13.665Z,2.80
2019-03-24T09:25:19.129Z,2.00
2019-03-24T09:30:29.605Z,1.97
2019-03-24T09:35:35.014Z,2.07
2019-03-24T09:40:42.680Z,2.77
2019-03-24T09:45:47.868Z,2.40
2019-03-24T09:50:53.550Z,2.30
2019-03-24T09:56:11.409Z,2.83
2019-03-24T10:01:16.685Z,2.00
2019-03-24T10:06:22.414Z,2.63
2019-03-24T10:11:27.501Z,2.60
2019-03-24T10:16:32.821Z,2.77
2019-03-24T10:21:37.959Z,2.80
2019-03-24T10:26:43.278Z,2.27
2019-03-24T10:31:48.518Z,1.90
2019-03-24T10:36:53.735Z,2.27
2019-03-24T10:41:59.396Z,2.33
2019-03-24T10:47:04.555Z,2.40
2019-03-24T10:52:09.643Z,2.33
2019-03-24T10:57:14.911Z,2.00
2019-03-24T11:02:21.180Z,3.03
2019-03-24T11:07:26.660Z,2.37
2019-03-24T11:12:32.014Z,2.07
2019-03-24T11:17:37.430Z,2.20
2019-03-24T11:22:53.147Z,3.53
2019-03-24T11:27:59.609Z,2.27
2019-03-24T11:33:09.317Z,2.17
2019-03-24T11:38:14.628Z,1.90
2019-03-24T11:43:19.748Z,2.53
2019-03-24T11:48:24.899Z,2.43
2019-03-24T11:53:30.383Z,2.80
2019-03-24T11:58:36.328Z,2.90
2019-03-24T12:03:41.888Z,2.37
2019-03-24T12:08:48.743Z,2.47
2019-03-24T12:13:54.283Z,2.30
2019-03-24T12:19:04.163Z,2.67
2019-03-24T12:24:10.649Z,3.20
2019-03-24T12:29:17.419Z,3.00
2019-03-24T12:34:22.942Z,2.37
2019-03-24T12:39:28.174Z,2.00
2019-03-24T12:44:35.058Z,2.30
2019-03-24T12:49:41.733Z,2.70
2019-03-24T12:54:53.994Z,3.07
2019-03-24T13:00:15.056Z,2.43
2019-03-24T13:05:33.862Z,2.70
2019-03-24T13:10:39.081Z,2.47
2019-03-24T13:15:44.422Z,2.57
2019-03-24T13:20:50.322Z,2.90
2019-03-24T13:25:55.626Z,2.77
2019-03-24T13:31:01.442Z,3.63
2019-03-24T13:36:12.724Z,2.63
2019-03-24T13:41:18.687Z,2.47
2019-03-24T13:46:23.865Z,2.40
2019-03-24T13:51:29.746Z,2.80
2019-03-24T13:56:38.294Z,2.50
2019-03-24T14:01:44.435Z,2.37
2019-03-24T14:06:49.766Z,2.00
2019-03-24T14:11:55.337Z,2.30
2019-03-24T14:17:00.475Z,3.17
2019-03-24T14:22:06.345Z,2.73
2019-03-24T14:27:11.643Z,2.40
2019-03-24T14:32:16.926Z,1.87
2019-03-24T14:37:22.521Z,2.00
2019-03-24T14:42:27.948Z,1.40
2019-03-24T14:47:33.414Z,2.33
2019-03-24T14:52:38.865Z,2.77
2019-03-24T14:57:44.768Z,2.87
2019-03-24T15:02:50.443Z,2.50
2019-03-24T15:07:56.130Z,3.63
2019-03-24T15:13:01.679Z,4.13
2019-03-24T15:18:07.343Z,2.83
2019-03-24T15:23:13.017Z,2.87
2019-03-24T15:28:18.048Z,2.70
2019-03-24T15:33:23.836Z,3.23
2019-03-24T15:38:29.082Z,3.67
2019-03-24T15:43:37.472Z,3.63
2019-03-24T15:48:42.651Z,2.73
2019-03-24T15:53:48.329Z,2.47
2019-03-24T15:58:54.850Z,2.63
2019-03-24T16:04:12.682Z,3.00
2019-03-24T16:09:17.997Z,2.40
2019-03-24T16:14:23.477Z,2.87
2019-03-24T16:19:29.258Z,2.40
2019-03-24T16:24:34.831Z,2.70
2019-03-24T16:29:40.631Z,2.57
2019-03-24T16:34:46.173Z,2.93
2019-03-24T16:39:51.629Z,1.87
2019-03-24T16:44:58.394Z,2.40
2019-03-24T16:50:08.214Z,1.93
2019-03-24T16:55:13.614Z,3.00
2019-03-24T17:00:18.972Z,3.17
2019-03-24T17:05:24.161Z,3.00
2019-03-24T17:10:29.384Z,1.87
2019-03-24T17:15:41.712Z,3.37
2019-03-24T17:21:06.501Z,2.40
2019-03-24T17:26:12.008Z,2.47
2019-03-24T17:31:17.129Z,2.97
2019-03-24T17:36:22.144Z,2.50
2019-03-24T17:41:27.053Z,3.40
2019-03-24T17:46:32.240Z,3.13
2019-03-24T17:51:37.378Z,4.30
2019-03-24T17:56:42.634Z,4.43
2019-03-24T18:01:47.758Z,3.37
2019-03-24T18:06:52.817Z,7.40
2019-03-24T18:11:57.893Z,13.17
2019-03-24T18:17:03.189Z,13.47
2019-03-24T18:22:11.943Z,8.17
2019-03-24T18:27:15.647Z,5.50
2019-03-24T18:32:22.899Z,6.00
2019-03-24T18:37:28.046Z,7.40
2019-03-24T18:42:33.031Z,7.37
2019-03-24T18:47:39.404Z,8.80
2019-03-24T18:52:44.937Z,8.10
2019-03-24T18:57:49.927Z,8.77
2019-03-24T19:02:55.061Z,10.53
2019-03-24T19:08:00.406Z,10.93
2019-03-24T19:13:05.671Z,15.57
2019-03-24T19:18:12.414Z,14.33
2019-03-24T19:23:18.005Z,13.10
2019-03-24T19:28:42.555Z,15.37
2019-03-24T19:33:47.795Z,12.97
2019-03-24T19:38:53.401Z,13.80
2019-03-24T19:43:58.782Z,14.73
2019-03-24T19:49:04.351Z,12.70
2019-03-24T19:54:09.635Z,11.80
2019-03-24T19:59:14.994Z,14.70
2019-03-24T20:04:20.366Z,21.97
2019-03-24T20:09:25.526Z,18.63
2019-03-24T20:14:30.891Z,19.90
2019-03-24T20:19:36.172Z,14.53
2019-03-24T20:24:41.165Z,13.20
2019-03-24T20:29:46.890Z,15.77
2019-03-24T20:34:52.180Z,12.67
2019-03-24T20:39:57.495Z,9.90
2019-03-24T20:45:02.908Z,11.50
2019-03-24T20:50:09.422Z,11.00
2019-03-24T20:55:15.080Z,10.83
2019-03-24T21:00:23.239Z,10.30
2019-03-24T21:05:28.738Z,10.10
2019-03-24T21:10:33.871Z,10.23
2019-03-24T21:15:39.190Z,11.67
2019-03-24T21:20:45.557Z,11.40
2019-03-24T21:25:51.443Z,13.70
2019-03-24T21:30:56.827Z,11.33
2019-03-24T21:36:01.863Z,14.30
2019-03-24T21:41:07.232Z,12.57
2019-03-24T21:46:12.641Z,13.40
2019-03-24T21:51:18.458Z,13.90
2019-03-24T21:56:23.614Z,17.57
2019-03-24T22:01:28.938Z,14.77
2019-03-24T22:06:33.931Z,14.70
2019-03-24T22:11:39.387Z,14.97
2019-03-24T22:16:44.525Z,20.20
2019-03-24T22:21:50.119Z,16.10
2019-03-24T22:26:55.586Z,16.70
2019-03-24T22:32:00.853Z,9.67
2019-03-24T22:37:15.454Z,9.40
2019-03-24T22:42:13.110Z,10.77
2019-03-24T22:47:18.299Z,9.73
2019-03-24T22:52:23.546Z,11.83
2019-03-24T22:57:28.750Z,10.17
2019-03-24T23:02:34.098Z,12.27
2019-03-24T23:07:39.314Z,11.93
2019-03-24T23:12:44.870Z,12.20
2019-03-24T23:17:50.089Z,10.80
2019-03-24T23:22:55.244Z,12.10
2019-03-24T23:28:00.463Z,11.37
2019-03-24T23:33:05.659Z,13.30
2019-03-24T23:38:10.733Z,11.83
2019-03-24T23:43:15.804Z,10.60
2019-03-24T23:48:20.760Z,11.23
2019-03-24T23:53:25.831Z,10.97
2019-03-24T23:58:40.247Z,11.93
